aviador You're here:

EBCV Decoded Metar

CHIEVRES in BELGIUM
Report Time2017-11-20 22:25:00
UTC Time2017-11-20 22:56:51
Flight Rules ifr IFR
Wind240° at 10 kt
W.Decomp.*RWY 26: 9.3 kt HW 3.6 kt LCW
W.Rank240° ranks 5
Current wind is above 240° avg. (8.4)
Visibility6000 m
Phenomena:Light Rain
Clouds:Overcast 005 Hf
Ceiling500 ft
Temp10°C (ISA -5)
Dew Point10°C (100% RH)
AAT6.4°C
QNH1014 hPa
Density Alt-210 ft
Elevation207 ft
Report Wrong Elevation
Raw Report
EBCV 202225Z AUTO 24010KT 6000 -RA OVC005/// 10/10 Q1014 YLO=

Extra information for EBCV:More info

Metar Taf Metar & Taf Last 4 Metars F.Rules Stats Wind Profile Meteogram Temp Stats Airport Information Weather charts Add Link Nearby VenuesMetar ALERT Operation Metar Decoded Social comments